Time;durP1;ratioP1;P1;durP2;ratioP2;P2;SDS_P1;SDS_P2;PMS_P1;PMS_P2;Temp;Humidity;BMP_temperature;BMP_pressure;BME280_temperature;BME280_humidity;BME280_pressure;Samples;Min_cycle;Max_cycle;Signal;HPM_P1;HPM_P2
2020/12/05 05:46:32;;;;;;;5.22;3.55;;;;;;;;;;6257638;22;890394;-80
2020/12/05 05:48:58;;;;;;;6.97;4.22;;;;;;;;;;6287717;22;20003;-80
2020/12/05 05:51:39;;;;;;;6.32;4.20;;;;;;;;;;6314631;22;20000;-80
2020/12/05 05:54:12;;;;;;;6.20;3.95;;;;;;;;;;6315515;22;20034;-80
2020/12/05 05:56:38;;;;;;;7.45;4.30;;;;;;;;;;6296880;22;20007;-80
2020/12/05 05:59:06;;;;;;;8.02;3.85;;;;;;;;;;6284118;22;20004;-80
2020/12/05 06:01:33;;;;;;;5.15;3.25;;;;;;;;;;6282270;22;20082;-80
2020/12/05 06:04:02;;;;;;;7.00;4.25;;;;;;;;;;6281701;22;20459;-79
2020/12/05 06:06:29;;;;;;;6.38;4.38;;;;;;;;;;6254607;22;20224;-79
2020/12/05 06:11:14;;;;;;;5.63;3.42;;;;;;;;;;5115205;27;20399;-80
2020/12/05 06:13:41;;;;;;;6.53;3.60;;;;;;;;;;5096766;28;20028;-80
2020/12/05 06:16:06;;;;;;;7.05;4.53;;;;;;;;;;5082615;28;20025;-80
2020/12/05 06:18:32;;;;;;;11.23;5.80;;;;;;;;;;5084116;28;20021;-79
2020/12/05 06:20:58;;;;;;;8.75;5.47;;;;;;;;;;5092961;28;20028;-80
2020/12/05 06:23:42;;;;;;;9.55;5.85;;;;;;;;;;5085524;28;20036;-80
2020/12/05 06:26:08;;;;;;;9.20;5.72;;;;;;;;;;5092131;28;20070;-80
2020/12/05 06:28:37;;;;;;;11.25;6.25;;;;;;;;;;5089134;28;20040;-80
2020/12/05 06:31:03;;;;;;;12.23;7.97;;;;;;;;;;5088202;28;20024;-80
2020/12/05 06:33:48;;;;;;;8.30;5.88;;;;;;;;;;5080261;28;20020;-80
2020/12/05 06:38:32;;;;;;;8.77;6.13;;;;;;;;;;5086764;28;20369;-81
2020/12/05 06:40:58;;;;;;;9.98;6.60;;;;;;;;;;5070448;28;20441;-81
2020/12/05 06:43:23;;;;;;;8.38;5.28;;;;;;;;;;5064090;28;20969;-81
2020/12/05 06:45:49;;;;;;;9.05;5.65;;;;;;;;;;5066492;28;20019;-81
2020/12/05 06:48:18;;;;;;;8.73;5.82;;;;;;;;;;5084288;28;20104;-82
2020/12/05 06:50:47;;;;;;;9.68;5.93;;;;;;;;;;5083265;28;20480;-82
2020/12/05 06:53:20;;;;;;;7.13;5.68;;;;;;;;;;5056696;28;20028;-82
2020/12/05 06:55:46;;;;;;;7.63;5.20;;;;;;;;;;5065129;28;20491;-82
2020/12/05 06:58:12;;;;;;;9.05;5.40;;;;;;;;;;5082942;28;20473;-81
2020/12/05 07:00:39;;;;;;;7.78;5.57;;;;;;;;;;5084680;28;20032;-82
2020/12/05 07:03:08;;;;;;;9.30;5.60;;;;;;;;;;5083543;28;20086;-81
2020/12/05 07:05:46;;;;;;;7.35;4.95;;;;;;;;;;5075510;28;20020;-82
2020/12/05 07:08:27;;;;;;;6.82;4.30;;;;;;;;;;5063237;28;20421;-82
2020/12/05 07:10:58;;;;;;;8.50;5.10;;;;;;;;;;5058538;28;20028;-82
2020/12/05 07:13:24;;;;;;;9.48;5.35;;;;;;;;;;5067192;28;20040;-82
2020/12/05 07:15:51;;;;;;;7.70;5.78;;;;;;;;;;5065506;28;20020;-82
2020/12/05 07:18:24;;;;;;;7.10;4.78;;;;;;;;;;5063248;28;20031;-82
2020/12/05 07:20:50;;;;;;;6.90;5.35;;;;;;;;;;5076214;28;20024;-82
2020/12/05 07:23:16;;;;;;;7.35;4.82;;;;;;;;;;5093922;28;20020;-82
2020/12/05 07:25:44;;;;;;;6.72;5.03;;;;;;;;;;5082288;28;20054;-81
2020/12/05 07:28:10;;;;;;;8.60;5.50;;;;;;;;;;5080124;28;20028;-82
2020/12/05 07:30:36;;;;;;;7.15;5.05;;;;;;;;;;5066101;28;20391;-82
2020/12/05 07:33:06;;;;;;;7.38;5.15;;;;;;;;;;5058360;28;20031;-82
2020/12/05 07:35:32;;;;;;;16.27;12.18;;;;;;;;;;5086822;28;20039;-82
2020/12/05 07:37:58;;;;;;;10.38;7.00;;;;;;;;;;5093456;28;20024;-82
2020/12/05 07:40:27;;;;;;;12.43;8.38;;;;;;;;;;5080554;28;20507;-82
2020/12/05 07:42:53;;;;;;;9.27;6.50;;;;;;;;;;5079091;28;20021;-81
2020/12/05 07:45:20;;;;;;;7.68;4.88;;;;;;;;;;5079063;28;20027;-82
2020/12/05 07:47:45;;;;;;;8.00;5.00;;;;;;;;;;5081103;28;20047;-82
2020/12/05 07:50:12;;;;;;;6.15;4.05;;;;;;;;;;5070164;28;20020;-81
2020/12/05 07:52:38;;;;;;;6.38;4.50;;;;;;;;;;5051901;28;20033;-81
2020/12/05 07:55:05;;;;;;;6.40;4.30;;;;;;;;;;5049781;28;20537;-82
2020/12/05 07:57:32;;;;;;;6.55;4.38;;;;;;;;;;5050441;28;20032;-82
2020/12/05 08:00:07;;;;;;;5.82;3.83;;;;;;;;;;5061655;28;20131;-82
2020/12/05 08:04:57;;;;;;;6.90;4.28;;;;;;;;;;5106037;27;20940;-81
2020/12/05 08:07:23;;;;;;;6.00;4.30;;;;;;;;;;5103278;28;20035;-81
2020/12/05 08:09:51;;;;;;;7.25;4.30;;;;;;;;;;5107521;28;20019;-81
2020/12/05 08:12:25;;;;;;;6.05;4.03;;;;;;;;;;5109920;28;20024;-81
2020/12/05 08:17:11;;;;;;;7.53;4.30;;;;;;;;;;5113353;27;20377;-82
2020/12/05 08:19:40;;;;;;;5.53;3.75;;;;;;;;;;5096225;28;20067;-82
2020/12/05 08:22:09;;;;;;;6.47;4.68;;;;;;;;;;5095079;28;20534;-82
2020/12/05 08:24:37;;;;;;;8.73;5.47;;;;;;;;;;5091653;28;20491;-82
2020/12/05 08:27:03;;;;;;;6.20;4.53;;;;;;;;;;5095579;28;20024;-82
2020/12/05 08:29:29;;;;;;;6.20;4.43;;;;;;;;;;5092035;28;20020;-82
2020/12/05 08:31:55;;;;;;;6.35;4.20;;;;;;;;;;5091003;28;20029;-82
2020/12/05 08:34:31;;;;;;;6.00;4.32;;;;;;;;;;5090745;28;20024;-82
2020/12/05 08:37:01;;;;;;;5.57;4.07;;;;;;;;;;5086587;28;20055;-81
2020/12/05 08:39:30;;;;;;;6.70;4.20;;;;;;;;;;5090046;28;20099;-81
2020/12/05 08:41:57;;;;;;;7.28;5.10;;;;;;;;;;5093385;28;20518;-81
2020/12/05 08:44:28;;;;;;;5.50;3.90;;;;;;;;;;5092431;28;20025;-81
2020/12/05 08:47:07;;;;;;;6.18;4.18;;;;;;;;;;5087326;28;20506;-81
2020/12/05 08:49:40;;;;;;;6.20;4.35;;;;;;;;;;5103442;28;20416;-82
2020/12/05 08:52:06;;;;;;;8.40;5.70;;;;;;;;;;5097161;28;20024;-81
2020/12/05 08:54:42;;;;;;;6.70;4.95;;;;;;;;;;5090378;28;20102;-81
2020/12/05 08:57:09;;;;;;;6.50;4.43;;;;;;;;;;5099255;28;20208;-81
2020/12/05 08:59:35;;;;;;;7.00;4.45;;;;;;;;;;5091114;28;20380;-81
2020/12/05 09:02:01;;;;;;;6.97;3.92;;;;;;;;;;5101423;28;20092;-80
2020/12/05 09:04:28;;;;;;;6.03;4.07;;;;;;;;;;5075203;28;20024;-78
2020/12/05 09:06:54;;;;;;;5.50;3.80;;;;;;;;;;5086631;28;20115;-79
2020/12/05 09:09:30;;;;;;;6.10;3.90;;;;;;;;;;5094762;28;20024;-79
2020/12/05 09:12:06;;;;;;;8.70;6.35;;;;;;;;;;5086901;28;20029;-79
2020/12/05 09:14:32;;;;;;;10.98;7.60;;;;;;;;;;5096051;28;20031;-81
2020/12/05 09:16:58;;;;;;;11.80;7.72;;;;;;;;;;5093818;28;20020;-80
2020/12/05 09:19:27;;;;;;;13.02;8.45;;;;;;;;;;5088561;28;20472;-79
2020/12/05 09:21:53;;;;;;;15.45;9.38;;;;;;;;;;5078277;28;20020;-79
2020/12/05 09:24:19;;;;;;;13.82;7.50;;;;;;;;;;5083427;28;20467;-79
2020/12/05 09:29:04;;;;;;;7.68;5.32;;;;;;;;;;5109504;27;20407;-80
2020/12/05 09:31:30;;;;;;;7.88;5.05;;;;;;;;;;5101763;28;20040;-80
2020/12/05 09:33:56;;;;;;;7.57;5.35;;;;;;;;;;5099001;28;20407;-80
2020/12/05 09:36:22;;;;;;;7.38;5.35;;;;;;;;;;5093783;28;20032;-80
2020/12/05 09:38:48;;;;;;;10.98;6.60;;;;;;;;;;5103596;28;20411;-80
2020/12/05 09:41:14;;;;;;;8.80;6.25;;;;;;;;;;5095648;28;20027;-80
2020/12/05 09:43:40;;;;;;;11.15;5.78;;;;;;;;;;5102648;28;20084;-80
2020/12/05 09:46:06;;;;;;;7.07;5.07;;;;;;;;;;5102347;28;20059;-80
2020/12/05 09:48:32;;;;;;;7.65;5.38;;;;;;;;;;5099931;28;20012;-80
2020/12/05 09:50:57;;;;;;;6.55;5.00;;;;;;;;;;5091558;28;20024;-80
2020/12/05 09:53:23;;;;;;;6.43;4.18;;;;;;;;;;5088564;28;20012;-80
2020/12/05 09:55:49;;;;;;;7.25;5.25;;;;;;;;;;5102765;28;20414;-80
2020/12/05 09:58:15;;;;;;;8.13;4.53;;;;;;;;;;5094215;28;20136;-80
2020/12/05 10:03:00;;;;;;;6.43;4.15;;;;;;;;;;5076602;28;20930;-79
2020/12/05 10:05:26;;;;;;;7.22;4.60;;;;;;;;;;5056357;28;20029;-79
2020/12/05 10:07:52;;;;;;;7.07;4.88;;;;;;;;;;5050365;28;20036;-80
2020/12/05 10:10:18;;;;;;;6.28;4.63;;;;;;;;;;5054227;28;20035;-79
2020/12/05 10:15:03;;;;;;;7.57;4.25;;;;;;;;;;5072144;28;20383;-78
2020/12/05 10:17:29;;;;;;;7.63;4.85;;;;;;;;;;5058593;28;20096;-78
2020/12/05 10:19:55;;;;;;;6.28;4.10;;;;;;;;;;5062254;28;20051;-79
2020/12/05 10:22:21;;;;;;;7.10;4.55;;;;;;;;;;5062254;28;20029;-78
2020/12/05 10:24:47;;;;;;;5.88;3.92;;;;;;;;;;5046532;28;20783;-78
2020/12/05 10:27:13;;;;;;;6.07;4.28;;;;;;;;;;5055230;28;20035;-78
2020/12/05 10:29:39;;;;;;;5.57;4.30;;;;;;;;;;5055639;28;20063;-78
2020/12/05 10:32:05;;;;;;;6.72;5.05;;;;;;;;;;5056235;28;20045;-78
2020/12/05 10:34:31;;;;;;;9.75;5.18;;;;;;;;;;5061299;28;20033;-78
2020/12/05 10:36:57;;;;;;;25.45;13.52;;;;;;;;;;5054894;28;20040;-79
2020/12/05 10:39:23;;;;;;;78.20;39.25;;;;;;;;;;5059437;28;20029;-78
2020/12/05 10:41:49;;;;;;;48.10;24.23;;;;;;;;;;5052361;28;20055;-78
2020/12/05 10:44:15;;;;;;;25.17;14.18;;;;;;;;;;5051194;28;20032;-78
2020/12/05 10:46:42;;;;;;;8.32;5.95;;;;;;;;;;5051652;28;20030;-78
2020/12/05 10:49:08;;;;;;;11.50;6.70;;;;;;;;;;5056378;28;20025;-78
2020/12/05 10:51:34;;;;;;;9.60;6.10;;;;;;;;;;5060495;28;20033;-79
2020/12/05 10:54:00;;;;;;;11.45;5.75;;;;;;;;;;5056832;28;20116;-78
2020/12/05 10:56:26;;;;;;;8.02;5.85;;;;;;;;;;5056526;28;20092;-78
2020/12/05 11:01:12;;;;;;;8.40;4.80;;;;;;;;;;5112248;27;20379;-81
2020/12/05 11:03:38;;;;;;;6.22;4.45;;;;;;;;;;5101887;28;20107;-81
2020/12/05 11:06:04;;;;;;;6.18;3.90;;;;;;;;;;5091240;28;20063;-81
2020/12/05 11:08:30;;;;;;;6.28;3.95;;;;;;;;;;5089104;28;20054;-81
2020/12/05 11:10:56;;;;;;;5.60;3.60;;;;;;;;;;5088606;28;20036;-82
2020/12/05 11:13:22;;;;;;;5.55;3.65;;;;;;;;;;5086654;28;20024;-81
2020/12/05 11:15:47;;;;;;;4.85;3.17;;;;;;;;;;5092464;28;20026;-81
2020/12/05 11:18:13;;;;;;;4.72;3.20;;;;;;;;;;5092922;28;20075;-81
2020/12/05 11:20:39;;;;;;;4.68;2.90;;;;;;;;;;5095105;28;20056;-82
2020/12/05 11:23:05;;;;;;;7.43;4.35;;;;;;;;;;5098943;28;20420;-81
2020/12/05 11:25:31;;;;;;;5.28;3.50;;;;;;;;;;5088910;28;20016;-81
2020/12/05 11:27:57;;;;;;;5.25;3.47;;;;;;;;;;5082218;28;20444;-82
2020/12/05 11:30:23;;;;;;;5.15;3.58;;;;;;;;;;5081047;28;20028;-82
2020/12/05 11:32:49;;;;;;;8.68;4.05;;;;;;;;;;5086110;28;20070;-81
2020/12/05 11:35:15;;;;;;;7.60;5.25;;;;;;;;;;5078968;28;20059;-82
2020/12/05 11:37:41;;;;;;;7.28;4.95;;;;;;;;;;5079831;28;20020;-81
2020/12/05 11:40:07;;;;;;;8.50;5.63;;;;;;;;;;5092109;28;20032;-82
2020/12/05 11:42:33;;;;;;;8.30;5.63;;;;;;;;;;5100929;28;20380;-81
2020/12/05 11:44:59;;;;;;;6.85;4.70;;;;;;;;;;5090067;28;20023;-81
2020/12/05 11:47:26;;;;;;;7.72;5.65;;;;;;;;;;5097474;28;20035;-82
2020/12/05 11:49:52;;;;;;;7.68;5.35;;;;;;;;;;5082679;28;20035;-82
2020/12/05 11:52:18;;;;;;;7.03;4.43;;;;;;;;;;5082069;28;20116;-81
2020/12/05 11:54:44;;;;;;;7.25;3.88;;;;;;;;;;5085521;28;20036;-81
2020/12/05 11:57:09;;;;;;;4.93;3.30;;;;;;;;;;5082195;28;20020;-81
2020/12/05 11:59:37;;;;;;;5.78;3.80;;;;;;;;;;5082224;28;20395;-79
2020/12/05 12:02:03;;;;;;;7.70;4.32;;;;;;;;;;5083303;28;20016;-80
2020/12/05 12:04:29;;;;;;;7.93;5.22;;;;;;;;;;5079834;28;21561;-80
2020/12/05 12:06:55;;;;;;;6.57;4.72;;;;;;;;;;5081616;28;20020;-81
2020/12/05 12:09:21;;;;;;;5.85;4.15;;;;;;;;;;5082896;28;20396;-81
2020/12/05 12:11:47;;;;;;;5.97;4.00;;;;;;;;;;5079062;28;20032;-81
2020/12/05 12:14:13;;;;;;;5.00;3.28;;;;;;;;;;5071651;28;20553;-81
2020/12/05 12:16:39;;;;;;;6.07;4.03;;;;;;;;;;5072684;28;20028;-81
2020/12/05 12:19:05;;;;;;;4.15;2.80;;;;;;;;;;5073053;28;20116;-81
2020/12/05 12:21:31;;;;;;;6.10;3.00;;;;;;;;;;5071882;28;20196;-80
2020/12/05 12:23:57;;;;;;;4.32;2.55;;;;;;;;;;5071871;28;20024;-81
2020/12/05 12:26:29;;;;;;;3.80;2.42;;;;;;;;;;5065024;28;20033;-81
2020/12/05 12:31:13;;;;;;;3.95;2.67;;;;;;;;;;5102924;27;20397;-80
2020/12/05 12:33:39;;;;;;;3.50;2.28;;;;;;;;;;5104184;28;20027;-79
2020/12/05 12:36:05;;;;;;;4.90;2.70;;;;;;;;;;5097206;28;20032;-80
2020/12/05 12:38:31;;;;;;;4.75;2.97;;;;;;;;;;5100877;28;20104;-80
2020/12/05 12:40:57;;;;;;;4.57;2.92;;;;;;;;;;5100788;28;20025;-80
2020/12/05 12:43:23;;;;;;;4.50;2.88;;;;;;;;;;5096936;28;20096;-80
2020/12/05 12:45:49;;;;;;;4.75;2.90;;;;;;;;;;5095351;28;20093;-81
2020/12/05 12:50:48;;;;;;;4.90;3.10;;;;;;;;;;5102094;28;20052;-80
2020/12/05 12:53:15;;;;;;;4.43;2.83;;;;;;;;;;5102712;28;20446;-79
2020/12/05 12:55:41;;;;;;;5.00;3.33;;;;;;;;;;5097019;28;20019;-81
2020/12/05 12:58:18;;;;;;;4.15;2.83;;;;;;;;;;5096653;28;20032;-80
2020/12/05 13:00:44;;;;;;;12.25;3.75;;;;;;;;;;5097148;28;20029;-83
2020/12/05 13:03:11;;;;;;;6.82;2.72;;;;;;;;;;5095197;28;20034;-82
2020/12/05 13:05:37;;;;;;;4.68;2.85;;;;;;;;;;5090781;28;20111;-82
2020/12/05 13:08:03;;;;;;;5.85;3.42;;;;;;;;;;5095788;28;20036;-82
2020/12/05 13:10:30;;;;;;;4.50;2.90;;;;;;;;;;5100176;28;20024;-82
2020/12/05 13:12:56;;;;;;;6.05;3.00;;;;;;;;;;5095931;28;20160;-83
2020/12/05 13:15:23;;;;;;;4.15;2.67;;;;;;;;;;5097706;28;20016;-82
2020/12/05 13:17:49;;;;;;;4.63;2.75;;;;;;;;;;5079353;28;20081;-82
2020/12/05 13:20:15;;;;;;;5.07;2.83;;;;;;;;;;5091765;28;20024;-82
2020/12/05 13:22:41;;;;;;;6.03;3.50;;;;;;;;;;5097073;28;20024;-82
2020/12/05 13:25:07;;;;;;;5.50;3.22;;;;;;;;;;5093726;28;20521;-82
2020/12/05 13:27:33;;;;;;;4.65;2.63;;;;;;;;;;5096821;28;20063;-82
2020/12/05 13:32:18;;;;;;;4.90;2.83;;;;;;;;;;5053974;28;20408;-82
2020/12/05 13:34:44;;;;;;;4.70;3.10;;;;;;;;;;5043617;28;20083;-82
2020/12/05 13:37:10;;;;;;;4.10;2.63;;;;;;;;;;5044509;28;20029;-81
2020/12/05 13:39:36;;;;;;;3.80;2.53;;;;;;;;;;5039176;28;20029;-82
2020/12/05 13:42:02;;;;;;;4.93;3.00;;;;;;;;;;5045098;28;20032;-81
2020/12/05 13:44:28;;;;;;;6.50;3.63;;;;;;;;;;5039624;28;20785;-79
2020/12/05 13:46:55;;;;;;;8.25;5.60;;;;;;;;;;5027048;28;20096;-79
2020/12/05 13:49:21;;;;;;;6.60;3.80;;;;;;;;;;5040443;28;20021;-79
2020/12/05 13:51:48;;;;;;;6.20;3.50;;;;;;;;;;5047553;28;20098;-79
2020/12/05 13:54:14;;;;;;;6.65;4.35;;;;;;;;;;5028909;28;20033;-79
2020/12/05 13:56:42;;;;;;;7.65;4.38;;;;;;;;;;5024181;28;20029;-80
2020/12/05 13:59:08;;;;;;;5.25;2.97;;;;;;;;;;5054619;28;20068;-80
2020/12/05 14:01:34;;;;;;;5.45;3.05;;;;;;;;;;5024026;28;20026;-80
2020/12/05 14:04:00;;;;;;;5.70;4.20;;;;;;;;;;5036927;28;20493;-80
2020/12/05 14:06:26;;;;;;;11.93;6.70;;;;;;;;;;5041619;28;20060;-78
2020/12/05 14:08:52;;;;;;;8.93;6.32;;;;;;;;;;5038478;28;20430;-78
2020/12/05 14:11:22;;;;;;;11.00;6.70;;;;;;;;;;5027963;28;20026;-80
2020/12/05 14:13:48;;;;;;;9.43;6.35;;;;;;;;;;5037336;28;20022;-80
2020/12/05 14:16:14;;;;;;;12.25;8.23;;;;;;;;;;5029995;28;20028;-80
2020/12/05 14:18:40;;;;;;;12.75;8.25;;;;;;;;;;5039435;28;20020;-80
2020/12/05 14:21:06;;;;;;;9.50;6.20;;;;;;;;;;5040303;28;20436;-80
2020/12/05 14:23:32;;;;;;;8.68;6.68;;;;;;;;;;5037421;28;20378;-81
2020/12/05 14:25:58;;;;;;;9.98;6.03;;;;;;;;;;5036806;28;20083;-79
2020/12/05 14:28:25;;;;;;;7.28;3.90;;;;;;;;;;5033644;28;20037;-79
2020/12/05 14:30:51;;;;;;;7.57;4.63;;;;;;;;;;5021448;28;20125;-83
2020/12/05 14:33:18;;;;;;;6.60;4.70;;;;;;;;;;5034512;28;20064;-79
2020/12/05 14:35:45;;;;;;;6.38;3.97;;;;;;;;;;5046547;28;20057;-79
2020/12/05 14:38:11;;;;;;;6.80;4.57;;;;;;;;;;5046211;28;20049;-79
2020/12/05 14:40:37;;;;;;;5.80;4.00;;;;;;;;;;5026291;28;20041;-79
2020/12/05 14:43:03;;;;;;;7.22;5.25;;;;;;;;;;5020224;28;20026;-79
2020/12/05 14:45:29;;;;;;;9.35;4.60;;;;;;;;;;5028589;28;20029;-79
2020/12/05 14:47:55;;;;;;;10.55;5.82;;;;;;;;;;5019020;28;20120;-79
2020/12/05 14:50:21;;;;;;;38.22;18.60;;;;;;;;;;5041795;28;20695;-79
2020/12/05 14:52:47;;;;;;;13.13;6.80;;;;;;;;;;5040484;28;20029;-80
2020/12/05 14:55:14;;;;;;;10.68;6.95;;;;;;;;;;5020625;28;20022;-80
2020/12/05 14:57:41;;;;;;;21.00;11.98;;;;;;;;;;5029074;28;20021;-80
2020/12/05 15:00:07;;;;;;;10.80;6.35;;;;;;;;;;5026860;28;20523;-79
2020/12/05 15:02:33;;;;;;;12.10;6.75;;;;;;;;;;5026639;28;20021;-80
2020/12/05 15:04:59;;;;;;;11.45;7.40;;;;;;;;;;5026400;28;20021;-79
2020/12/05 15:07:25;;;;;;;8.68;5.15;;;;;;;;;;5024106;28;20021;-79
2020/12/05 15:09:51;;;;;;;7.72;4.82;;;;;;;;;;5020811;28;20022;-81
2020/12/05 15:12:17;;;;;;;6.38;4.85;;;;;;;;;;5026819;28;20375;-78
2020/12/05 15:14:43;;;;;;;9.60;6.32;;;;;;;;;;5023684;28;20022;-79
2020/12/05 15:17:09;;;;;;;10.57;5.57;;;;;;;;;;5031497;28;20428;-80
2020/12/05 15:19:35;;;;;;;6.90;4.50;;;;;;;;;;5024723;28;20064;-79
2020/12/05 15:22:04;;;;;;;6.57;4.45;;;;;;;;;;5027947;28;20030;-78
2020/12/05 15:24:30;;;;;;;6.47;4.20;;;;;;;;;;5022532;28;20018;-78
2020/12/05 15:26:56;;;;;;;6.35;3.83;;;;;;;;;;5025174;28;20435;-78
2020/12/05 15:29:22;;;;;;;5.72;4.15;;;;;;;;;;5026938;28;20102;-79
2020/12/05 15:31:48;;;;;;;5.07;3.72;;;;;;;;;;5010895;28;20033;-80
2020/12/05 15:34:14;;;;;;;9.00;5.75;;;;;;;;;;5021329;28;20056;-79
2020/12/05 15:36:40;;;;;;;9.00;5.65;;;;;;;;;;5019777;28;20491;-79
2020/12/05 15:39:06;;;;;;;7.93;5.47;;;;;;;;;;5017764;28;20029;-79
2020/12/05 15:41:32;;;;;;;6.97;4.80;;;;;;;;;;5017595;28;20048;-79
2020/12/05 15:43:58;;;;;;;5.88;4.25;;;;;;;;;;5011075;28;20451;-79
2020/12/05 15:46:24;;;;;;;6.80;4.25;;;;;;;;;;5024257;28;20034;-78
2020/12/05 15:48:51;;;;;;;8.02;4.68;;;;;;;;;;5016055;28;20064;-79
2020/12/05 15:51:17;;;;;;;6.75;4.95;;;;;;;;;;5025554;28;20036;-78
2020/12/05 15:53:43;;;;;;;7.28;4.72;;;;;;;;;;5019656;28;20587;-80
2020/12/05 15:56:09;;;;;;;6.80;4.68;;;;;;;;;;5013978;28;20030;-79
2020/12/05 15:58:35;;;;;;;7.85;4.88;;;;;;;;;;5013206;28;20026;-79
2020/12/05 16:01:01;;;;;;;7.43;4.68;;;;;;;;;;5011141;28;20165;-79
2020/12/05 16:03:27;;;;;;;6.72;4.75;;;;;;;;;;5013204;28;20053;-78
2020/12/05 16:05:58;;;;;;;6.45;4.40;;;;;;;;;;5015468;28;20494;-79
2020/12/05 16:08:24;;;;;;;5.82;4.43;;;;;;;;;;5012229;28;20410;-78
2020/12/05 16:10:50;;;;;;;6.25;4.20;;;;;;;;;;5017794;28;21468;-79
2020/12/05 16:13:17;;;;;;;5.30;4.05;;;;;;;;;;5020005;28;20041;-78
2020/12/05 16:15:43;;;;;;;5.22;3.65;;;;;;;;;;5017494;28;20494;-79
2020/12/05 16:20:26;;;;;;;5.85;3.83;;;;;;;;;;5082646;28;20414;-79
2020/12/05 16:22:52;;;;;;;5.50;3.55;;;;;;;;;;5081601;28;20025;-78
2020/12/05 16:25:18;;;;;;;5.35;3.92;;;;;;;;;;5077694;28;20024;-78
2020/12/05 16:27:44;;;;;;;6.47;4.25;;;;;;;;;;5080910;28;20020;-77
2020/12/05 16:30:10;;;;;;;7.18;4.28;;;;;;;;;;5080366;28;20028;-78
2020/12/05 16:32:37;;;;;;;6.53;3.92;;;;;;;;;;5079036;28;20048;-77
2020/12/05 16:35:03;;;;;;;6.00;3.83;;;;;;;;;;5079643;28;20427;-79
2020/12/05 16:37:30;;;;;;;8.65;5.63;;;;;;;;;;5059909;28;20063;-77
2020/12/05 16:42:15;;;;;;;8.88;5.40;;;;;;;;;;5126481;27;20402;-78
2020/12/05 16:44:41;;;;;;;7.93;5.20;;;;;;;;;;5105308;28;20079;-77
2020/12/05 16:47:07;;;;;;;7.70;5.45;;;;;;;;;;5101156;28;20423;-78
2020/12/05 16:49:36;;;;;;;8.75;6.30;;;;;;;;;;5083529;28;20016;-78
2020/12/05 16:52:02;;;;;;;8.63;5.93;;;;;;;;;;5081459;28;20016;-78
2020/12/05 16:54:28;;;;;;;15.02;9.20;;;;;;;;;;5097897;28;20024;-77
2020/12/05 16:56:54;;;;;;;11.35;7.13;;;;;;;;;;5094999;28;20035;-77
2020/12/05 16:59:20;;;;;;;11.55;6.82;;;;;;;;;;5101492;28;20108;-77
2020/12/05 17:01:46;;;;;;;19.73;12.52;;;;;;;;;;5106970;28;20027;-77
2020/12/05 17:04:12;;;;;;;20.38;11.85;;;;;;;;;;5098617;28;20097;-77
2020/12/05 17:06:38;;;;;;;50.72;26.83;;;;;;;;;;5110198;28;20026;-77
2020/12/05 17:09:04;;;;;;;67.88;34.38;;;;;;;;;;5097343;28;20035;-77
2020/12/05 17:11:30;;;;;;;63.00;36.08;;;;;;;;;;5100816;28;20390;-77
2020/12/05 17:13:56;;;;;;;52.65;30.10;;;;;;;;;;5111254;28;20099;-77
2020/12/05 17:16:25;;;;;;;44.33;26.23;;;;;;;;;;5101746;28;20023;-77
2020/12/05 17:18:52;;;;;;;52.08;27.90;;;;;;;;;;5081961;28;20492;-77
2020/12/05 17:21:19;;;;;;;38.25;22.45;;;;;;;;;;5099654;28;20019;-77
2020/12/05 17:23:45;;;;;;;23.25;15.93;;;;;;;;;;5113041;28;20111;-77
2020/12/05 17:26:10;;;;;;;17.33;10.05;;;;;;;;;;5101098;28;20749;-77
2020/12/05 17:28:36;;;;;;;11.27;7.38;;;;;;;;;;5117285;28;20109;-77
2020/12/05 17:31:02;;;;;;;9.15;6.38;;;;;;;;;;5119103;27;20125;-77
2020/12/05 17:33:28;;;;;;;9.82;7.22;;;;;;;;;;5110307;28;20032;-77
2020/12/05 17:35:54;;;;;;;10.45;6.68;;;;;;;;;;5119752;28;20038;-77
2020/12/05 17:38:20;;;;;;;9.77;6.88;;;;;;;;;;5111248;28;20028;-77
2020/12/05 17:40:46;;;;;;;11.13;7.45;;;;;;;;;;5110833;28;20028;-77
2020/12/05 17:43:12;;;;;;;11.13;8.38;;;;;;;;;;5110505;28;20037;-77
2020/12/05 17:45:38;;;;;;;12.40;9.10;;;;;;;;;;5110861;28;20103;-77
2020/12/05 17:48:04;;;;;;;13.20;8.10;;;;;;;;;;5104042;28;20055;-78
2020/12/05 17:50:30;;;;;;;12.13;8.68;;;;;;;;;;5108558;28;20093;-77
2020/12/05 17:52:56;;;;;;;10.18;7.47;;;;;;;;;;5110965;28;20026;-77
2020/12/05 17:55:22;;;;;;;11.07;7.93;;;;;;;;;;5099757;28;20028;-77
2020/12/05 17:57:48;;;;;;;53.63;11.55;;;;;;;;;;5102714;28;20032;-77
2020/12/05 18:00:13;;;;;;;9.60;7.25;;;;;;;;;;5089500;28;20399;-77
2020/12/05 18:02:39;;;;;;;16.48;11.23;;;;;;;;;;5091684;28;20099;-77
2020/12/05 18:05:05;;;;;;;26.88;15.88;;;;;;;;;;5073909;28;20435;-78
2020/12/05 18:07:31;;;;;;;23.70;15.07;;;;;;;;;;5088112;28;20020;-77
2020/12/05 18:09:57;;;;;;;29.50;18.85;;;;;;;;;;5089042;28;20048;-77
2020/12/05 18:12:23;;;;;;;22.85;15.07;;;;;;;;;;5086495;28;20078;-77
2020/12/05 18:14:49;;;;;;;18.55;11.98;;;;;;;;;;5091958;28;20023;-77
2020/12/05 18:17:15;;;;;;;18.35;11.77;;;;;;;;;;5090782;28;20027;-77
2020/12/05 18:19:41;;;;;;;14.63;9.93;;;;;;;;;;5087873;28;20043;-78
2020/12/05 18:22:07;;;;;;;13.55;9.30;;;;;;;;;;5088325;28;20028;-77
2020/12/05 18:24:33;;;;;;;12.20;8.73;;;;;;;;;;5086154;28;20052;-77
2020/12/05 18:26:59;;;;;;;13.07;9.02;;;;;;;;;;5069543;28;20024;-77
2020/12/05 18:29:26;;;;;;;12.65;8.85;;;;;;;;;;5091789;28;20020;-77
2020/12/05 18:34:10;;;;;;;11.35;8.50;;;;;;;;;;5108894;27;20388;-79
2020/12/05 18:36:38;;;;;;;14.65;9.80;;;;;;;;;;5107703;28;20472;-78
2020/12/05 18:39:04;;;;;;;15.02;9.30;;;;;;;;;;5099981;28;20518;-78
2020/12/05 18:41:30;;;;;;;16.80;11.25;;;;;;;;;;5110735;28;20024;-78
2020/12/05 18:43:56;;;;;;;16.98;10.95;;;;;;;;;;5117537;28;20438;-78
2020/12/05 18:46:23;;;;;;;18.52;10.68;;;;;;;;;;5111360;28;20036;-79
2020/12/05 18:48:50;;;;;;;14.35;10.27;;;;;;;;;;5122066;28;20030;-78
2020/12/05 18:51:19;;;;;;;13.40;8.88;;;;;;;;;;5113791;28;20020;-79
2020/12/05 18:53:45;;;;;;;15.88;10.10;;;;;;;;;;5121106;28;20035;-79
2020/12/05 18:56:11;;;;;;;14.35;9.65;;;;;;;;;;5116305;28;20024;-79
2020/12/05 18:58:39;;;;;;;17.80;13.15;;;;;;;;;;5119449;28;20027;-80
2020/12/05 19:01:05;;;;;;;14.00;11.70;;;;;;;;;;5117731;27;20027;-79
2020/12/05 19:03:32;;;;;;;18.40;12.30;;;;;;;;;;5117551;28;20589;-79
2020/12/05 19:05:59;;;;;;;15.82;11.43;;;;;;;;;;5115306;28;20020;-80
2020/12/05 19:08:25;;;;;;;14.20;9.85;;;;;;;;;;5109555;28;20032;-80
2020/12/05 19:10:51;;;;;;;13.95;9.50;;;;;;;;;;5122795;28;20406;-79
2020/12/05 19:13:17;;;;;;;11.23;7.97;;;;;;;;;;5113405;28;20465;-79
2020/12/05 19:15:43;;;;;;;11.70;7.68;;;;;;;;;;5109881;28;20090;-79
2020/12/05 19:18:10;;;;;;;10.40;7.38;;;;;;;;;;5117000;28;20019;-79
2020/12/05 19:20:36;;;;;;;13.00;8.63;;;;;;;;;;5113858;28;20025;-78
2020/12/05 19:23:02;;;;;;;19.70;12.63;;;;;;;;;;5120459;28;20498;-79
2020/12/05 19:25:28;;;;;;;16.80;10.95;;;;;;;;;;5107659;28;20487;-78
2020/12/05 19:27:54;;;;;;;17.85;9.80;;;;;;;;;;5114347;28;20023;-78
2020/12/05 19:30:20;;;;;;;15.10;10.75;;;;;;;;;;5119853;28;20090;-79
2020/12/05 19:32:46;;;;;;;20.20;12.52;;;;;;;;;;5115432;28;20031;-78
2020/12/05 19:35:12;;;;;;;30.52;17.85;;;;;;;;;;5100725;28;20076;-78
2020/12/05 19:37:38;;;;;;;25.45;14.73;;;;;;;;;;5116929;28;20054;-78
2020/12/05 19:40:05;;;;;;;18.58;12.63;;;;;;;;;;5114459;28;20055;-79
2020/12/05 19:42:32;;;;;;;18.48;11.82;;;;;;;;;;5115727;28;20020;-78
2020/12/05 19:44:58;;;;;;;20.77;13.63;;;;;;;;;;5108244;28;20107;-78
2020/12/05 19:47:24;;;;;;;22.52;14.48;;;;;;;;;;5097897;28;20451;-78
2020/12/05 19:49:50;;;;;;;18.77;12.63;;;;;;;;;;5094187;28;20060;-78
2020/12/05 19:54:35;;;;;;;18.45;11.48;;;;;;;;;;5115588;27;20430;-79
2020/12/05 19:57:01;;;;;;;17.70;10.38;;;;;;;;;;5116028;28;20031;-78
2020/12/05 19:59:26;;;;;;;17.63;11.82;;;;;;;;;;5115873;28;20019;-78
2020/12/05 20:01:52;;;;;;;16.92;11.07;;;;;;;;;;5121687;28;20453;-79
2020/12/05 20:04:18;;;;;;;18.25;11.32;;;;;;;;;;5113760;28;20547;-78
2020/12/05 20:06:44;;;;;;;16.10;10.75;;;;;;;;;;5121636;28;20031;-78
2020/12/05 20:09:12;;;;;;;20.75;12.00;;;;;;;;;;5123571;28;20019;-79
2020/12/05 20:11:38;;;;;;;20.98;14.60;;;;;;;;;;5117043;28;20016;-79
2020/12/05 20:14:04;;;;;;;17.75;13.57;;;;;;;;;;5119934;28;20031;-79
2020/12/05 20:16:30;;;;;;;18.00;11.93;;;;;;;;;;5117547;28;20032;-78
2020/12/05 20:18:59;;;;;;;16.75;10.43;;;;;;;;;;5121427;28;20030;-78
2020/12/05 20:21:25;;;;;;;19.90;11.43;;;;;;;;;;5121129;27;20486;-78
2020/12/05 20:23:51;;;;;;;18.60;11.77;;;;;;;;;;5119905;28;20369;-78
2020/12/05 20:26:20;;;;;;;15.95;10.88;;;;;;;;;;5115328;28;20387;-78
2020/12/05 20:28:46;;;;;;;19.10;11.43;;;;;;;;;;5115943;28;20031;-78
2020/12/05 20:31:12;;;;;;;16.58;10.88;;;;;;;;;;5120779;28;20028;-78
2020/12/05 20:33:38;;;;;;;18.63;11.18;;;;;;;;;;5115098;28;20053;-78
2020/12/05 20:36:06;;;;;;;15.40;10.48;;;;;;;;;;5122079;28;20112;-78
2020/12/05 20:38:31;;;;;;;16.17;11.13;;;;;;;;;;5119387;27;20019;-78
2020/12/05 20:40:58;;;;;;;17.63;10.90;;;;;;;;;;5110011;28;20457;-78
2020/12/05 20:43:27;;;;;;;15.10;9.45;;;;;;;;;;5120725;28;20023;-78
2020/12/05 20:45:53;;;;;;;19.75;13.77;;;;;;;;;;5111694;28;20020;-78
2020/12/05 20:48:19;;;;;;;16.58;11.35;;;;;;;;;;5121697;28;20387;-79
2020/12/05 20:50:45;;;;;;;19.40;12.88;;;;;;;;;;5113857;28;20027;-78
2020/12/05 20:53:11;;;;;;;19.35;12.80;;;;;;;;;;5122149;28;20035;-78